Time;durP1;ratioP1;P1;durP2;ratioP2;P2;SDS_P1;SDS_P2;PMS_P1;PMS_P2;Temp;Humidity;BMP_temperature;BMP_pressure;BME280_temperature;BME280_humidity;BME280_pressure;Samples;Min_cycle;Max_cycle;Signal;HPM_P1;HPM_P2
2023/03/04 00:02:00;;;;;;;15.57;11.03;;;5.20;99.90;;;;;;4935191;28;20036;-71
2023/03/04 00:04:26;;;;;;;20.47;10.07;;;5.30;99.90;;;;;;4936003;29;20035;-71
2023/03/04 00:06:52;;;;;;;14.83;9.77;;;5.20;99.90;;;;;;4919955;29;20039;-71
2023/03/04 00:09:18;;;;;;;15.23;10.80;;;5.20;99.90;;;;;;4935479;29;20481;-71
2023/03/04 00:11:44;;;;;;;17.63;11.20;;;5.10;99.90;;;;;;4941502;29;20038;-71
2023/03/04 00:14:10;;;;;;;17.73;10.30;;;5.20;99.90;;;;;;4920816;29;20043;-71
2023/03/04 00:16:36;;;;;;;15.47;11.13;;;5.10;99.90;;;;;;4934797;29;20386;-71
2023/03/04 00:19:02;;;;;;;15.63;10.87;;;5.10;99.90;;;;;;4932181;29;20032;-71
2023/03/04 00:21:28;;;;;;;14.93;10.33;;;5.10;99.90;;;;;;4944344;29;20051;-71
2023/03/04 00:23:55;;;;;;;16.67;10.83;;;5.10;99.90;;;;;;4936256;29;20044;-71
2023/03/04 00:26:21;;;;;;;17.10;10.53;;;4.90;99.90;;;;;;4936720;29;20039;-71
2023/03/04 00:28:47;;;;;;;13.97;10.40;;;4.90;99.90;;;;;;4919744;29;20035;-71
2023/03/04 00:31:13;;;;;;;18.67;10.57;;;4.80;99.90;;;;;;4935748;28;20050;-71
2023/03/04 00:33:39;;;;;;;13.70;10.00;;;4.90;99.90;;;;;;4936561;29;20058;-71
2023/03/04 00:36:05;;;;;;;14.20;10.30;;;4.90;99.90;;;;;;4915541;29;20044;-71
2023/03/04 00:38:32;;;;;;;20.20;11.57;;;4.90;99.90;;;;;;4920189;29;20036;-71
2023/03/04 00:40:58;;;;;;;16.73;11.57;;;4.80;99.90;;;;;;4916261;29;20024;-71
2023/03/04 00:43:24;;;;;;;15.47;11.20;;;4.80;99.90;;;;;;4926019;29;20040;-71
2023/03/04 00:45:50;;;;;;;14.57;11.30;;;4.80;99.90;;;;;;4935440;28;20024;-71
2023/03/04 00:48:16;;;;;;;14.57;11.20;;;4.80;99.90;;;;;;4918718;29;20042;-71
2023/03/04 00:50:42;;;;;;;16.87;11.23;;;4.80;99.90;;;;;;4918791;29;20040;-71
2023/03/04 00:53:09;;;;;;;14.77;9.87;;;4.70;99.90;;;;;;4935055;29;20031;-71
2023/03/04 00:55:35;;;;;;;15.77;11.80;;;4.70;99.90;;;;;;4919255;29;20416;-71
2023/03/04 00:58:01;;;;;;;17.90;12.03;;;4.70;99.90;;;;;;4936024;29;20043;-71
2023/03/04 01:00:27;;;;;;;18.30;11.43;;;4.70;99.90;;;;;;4918498;28;20035;-71
2023/03/04 01:02:54;;;;;;;14.90;11.47;;;4.80;99.90;;;;;;4934211;29;20054;-71
2023/03/04 01:05:20;;;;;;;14.60;11.83;;;4.70;99.90;;;;;;4933983;29;20036;-71
2023/03/04 01:07:46;;;;;;;18.63;12.93;;;4.80;99.90;;;;;;4934311;29;20039;-71
2023/03/04 01:10:13;;;;;;;18.13;14.13;;;4.80;99.90;;;;;;4935330;29;20044;-71
2023/03/04 01:12:40;;;;;;;17.97;13.47;;;4.80;99.90;;;;;;4946619;29;20495;-71
2023/03/04 01:15:10;;;;;;;16.97;12.70;;;4.70;99.90;;;;;;4952683;28;20059;-71
2023/03/04 01:17:36;;;;;;;17.30;13.07;;;4.60;99.90;;;;;;4936649;29;20048;-71
2023/03/04 01:20:04;;;;;;;18.77;12.63;;;4.60;99.90;;;;;;4945487;28;20043;-71
2023/03/04 01:22:30;;;;;;;17.17;12.33;;;4.50;99.90;;;;;;4918158;29;20048;-71
2023/03/04 01:24:56;;;;;;;20.43;13.63;;;4.60;99.90;;;;;;4918544;29;20043;-71
2023/03/04 01:27:22;;;;;;;20.47;13.27;;;4.50;99.90;;;;;;4903187;29;20039;-71
2023/03/04 01:29:48;;;;;;;18.93;12.73;;;4.60;99.90;;;;;;4933963;29;20032;-71
2023/03/04 01:32:14;;;;;;;18.87;13.53;;;4.80;99.90;;;;;;4917551;29;20039;-71
2023/03/04 01:34:40;;;;;;;19.87;12.90;;;5.00;99.90;;;;;;4918712;29;20040;-71
2023/03/04 01:37:06;;;;;;;19.23;12.53;;;5.00;99.90;;;;;;4917924;29;20051;-71
2023/03/04 01:39:32;;;;;;;20.97;13.10;;;4.90;99.90;;;;;;4934194;29;20392;-71
2023/03/04 01:41:59;;;;;;;17.17;13.47;;;4.70;99.90;;;;;;4935394;29;20042;-71
2023/03/04 01:44:25;;;;;;;18.40;12.67;;;4.60;99.90;;;;;;4933827;29;20058;-71
2023/03/04 01:46:52;;;;;;;17.63;13.40;;;4.70;99.90;;;;;;4933732;28;20400;-71
2023/03/04 01:49:18;;;;;;;17.23;12.43;;;4.80;99.90;;;;;;4933318;29;20027;-71
2023/03/04 01:51:48;;;;;;;21.60;12.63;;;4.70;99.90;;;;;;4918236;29;20043;-71
2023/03/04 01:54:15;;;;;;;17.67;12.47;;;4.70;99.90;;;;;;4917672;29;20032;-71
2023/03/04 01:56:43;;;;;;;17.73;12.87;;;4.60;99.90;;;;;;4934060;29;20031;-71
2023/03/04 01:59:09;;;;;;;19.97;12.60;;;4.70;99.90;;;;;;4933668;29;20058;-71
2023/03/04 02:01:35;;;;;;;19.57;13.37;;;4.70;99.90;;;;;;4934600;28;20046;-71
2023/03/04 02:04:01;;;;;;;20.60;13.10;;;4.90;99.90;;;;;;4917020;29;20032;-71
2023/03/04 02:06:27;;;;;;;23.33;13.03;;;4.90;99.90;;;;;;4916516;29;20039;-71
2023/03/04 02:08:53;;;;;;;17.23;11.73;;;4.90;99.90;;;;;;4918099;29;20028;-70
2023/03/04 02:11:20;;;;;;;21.03;13.77;;;4.90;99.90;;;;;;4934645;29;20050;-71
2023/03/04 02:13:46;;;;;;;20.83;12.90;;;4.90;99.90;;;;;;4954117;29;20381;-71
2023/03/04 02:16:12;;;;;;;20.97;14.17;;;4.80;99.90;;;;;;4939347;29;20046;-71
2023/03/04 02:18:38;;;;;;;23.83;14.00;;;4.80;99.90;;;;;;4944992;29;20468;-71
2023/03/04 02:21:12;;;;;;;22.47;14.33;;;4.70;99.90;;;;;;4940237;29;20036;-71
2023/03/04 02:23:38;;;;;;;20.23;13.50;;;4.70;99.90;;;;;;4922080;29;20031;-71
2023/03/04 02:26:17;;;;;;;22.87;14.63;;;4.80;99.90;;;;;;4937526;29;20366;-71
2023/03/04 02:28:44;;;;;;;22.80;13.67;;;4.80;99.90;;;;;;4937136;29;20380;-71
2023/03/04 02:31:20;;;;;;;24.50;14.97;;;4.80;99.90;;;;;;4921434;28;20429;-71
2023/03/04 02:33:46;;;;;;;23.17;13.33;;;4.80;99.90;;;;;;4937586;29;20023;-71
2023/03/04 02:36:12;;;;;;;22.63;14.90;;;4.70;99.90;;;;;;4921029;29;20044;-71
2023/03/04 02:38:38;;;;;;;22.70;14.10;;;4.50;99.90;;;;;;4937797;29;20040;-71
2023/03/04 02:41:04;;;;;;;19.83;13.93;;;4.30;99.90;;;;;;4937168;29;20097;-71
2023/03/04 02:43:30;;;;;;;23.27;14.30;;;4.20;99.90;;;;;;4921215;29;20035;-71
2023/03/04 02:45:57;;;;;;;18.67;14.60;;;4.10;99.90;;;;;;4936736;28;20036;-71
2023/03/04 02:48:23;;;;;;;21.30;14.97;;;4.10;99.90;;;;;;4938445;29;20027;-70
2023/03/04 02:50:50;;;;;;;20.73;15.30;;;4.00;99.90;;;;;;4937949;29;20028;-71
2023/03/04 02:53:16;;;;;;;19.83;14.63;;;3.90;99.90;;;;;;4937084;29;20038;-71
2023/03/04 02:55:43;;;;;;;19.67;15.30;;;3.80;99.90;;;;;;4936911;29;20034;-71
2023/03/04 02:58:10;;;;;;;19.57;15.40;;;3.70;99.90;;;;;;4936690;29;20384;-71
2023/03/04 03:00:36;;;;;;;21.97;16.23;;;3.70;99.90;;;;;;4920720;29;20091;-71
2023/03/04 03:03:02;;;;;;;19.50;15.70;;;3.70;99.90;;;;;;4936587;29;20044;-71
2023/03/04 03:05:30;;;;;;;19.67;15.57;;;3.70;99.90;;;;;;4919920;29;20043;-71
2023/03/04 03:07:56;;;;;;;19.93;15.30;;;3.60;99.90;;;;;;4921234;29;20035;-71
2023/03/04 03:10:22;;;;;;;21.40;16.03;;;3.70;99.90;;;;;;4936281;29;20047;-71
2023/03/04 03:12:48;;;;;;;19.47;12.80;;;3.60;99.90;;;;;;4934215;29;20046;-71
2023/03/04 03:15:14;;;;;;;21.00;15.30;;;3.50;99.90;;;;;;4955454;28;20034;-71
2023/03/04 03:17:41;;;;;;;23.33;15.70;;;3.40;99.90;;;;;;4948122;29;20083;-71
2023/03/04 03:20:09;;;;;;;21.27;15.63;;;3.40;99.90;;;;;;4928871;29;20040;-71
2023/03/04 03:22:35;;;;;;;19.50;14.57;;;3.40;99.90;;;;;;4935450;29;20051;-71
2023/03/04 03:25:02;;;;;;;22.03;15.10;;;3.40;99.90;;;;;;4920770;29;20039;-71
2023/03/04 03:27:28;;;;;;;19.50;14.10;;;3.30;99.90;;;;;;4920837;29;20043;-70
2023/03/04 03:29:54;;;;;;;25.13;16.43;;;3.30;99.90;;;;;;4937216;29;20028;-71
2023/03/04 03:32:20;;;;;;;23.10;15.93;;;3.30;99.90;;;;;;4920300;29;20040;-71
2023/03/04 03:34:46;;;;;;;28.20;15.70;;;3.30;99.90;;;;;;4920810;29;20028;-71
2023/03/04 03:37:13;;;;;;;24.37;16.17;;;3.30;99.90;;;;;;4919774;29;20042;-70
2023/03/04 03:39:39;;;;;;;25.67;15.63;;;3.30;99.90;;;;;;4934793;29;20032;-71
2023/03/04 03:42:05;;;;;;;28.30;16.73;;;3.30;99.90;;;;;;4920558;29;20066;-71
2023/03/04 03:44:31;;;;;;;25.37;16.13;;;3.20;99.90;;;;;;4937641;29;20464;-71
2023/03/04 03:46:57;;;;;;;23.90;13.83;;;3.20;99.90;;;;;;4919932;28;20433;-71
2023/03/04 03:49:23;;;;;;;25.80;16.33;;;3.10;99.90;;;;;;4936607;28;20035;-71
2023/03/04 03:51:49;;;;;;;26.40;16.50;;;3.10;99.90;;;;;;4936619;29;20036;-71
2023/03/04 03:54:15;;;;;;;32.00;15.97;;;3.10;99.90;;;;;;4936039;29;20392;-71
2023/03/04 03:56:41;;;;;;;30.87;18.37;;;3.10;99.90;;;;;;4935998;29;20027;-71
2023/03/04 03:59:07;;;;;;;31.30;16.43;;;3.00;99.90;;;;;;4936726;29;20401;-70
2023/03/04 04:01:34;;;;;;;27.23;17.40;;;3.00;99.90;;;;;;4934806;28;20059;-71
2023/03/04 04:04:00;;;;;;;26.63;17.93;;;3.00;99.90;;;;;;4937292;29;20035;-71
2023/03/04 04:06:26;;;;;;;27.40;17.93;;;3.00;99.90;;;;;;4937024;29;20030;-70
2023/03/04 04:08:52;;;;;;;34.10;18.53;;;3.00;99.90;;;;;;4934934;29;20040;-71
2023/03/04 04:11:18;;;;;;;28.03;17.47;;;2.90;99.90;;;;;;4937991;29;20040;-71
2023/03/04 04:13:44;;;;;;;26.00;16.63;;;2.90;99.90;;;;;;4956086;29;20384;-71
2023/03/04 04:16:10;;;;;;;29.73;17.83;;;2.90;99.90;;;;;;4940664;28;20519;-71
2023/03/04 04:18:36;;;;;;;28.80;17.93;;;2.90;99.90;;;;;;4944705;29;20035;-70
2023/03/04 04:21:03;;;;;;;29.23;17.50;;;2.90;99.90;;;;;;4954802;29;20031;-71
2023/03/04 04:23:29;;;;;;;25.83;17.17;;;2.90;99.90;;;;;;4939870;29;20044;-71
2023/03/04 04:25:56;;;;;;;34.40;18.83;;;2.90;99.90;;;;;;4936654;29;20032;-70
2023/03/04 04:28:22;;;;;;;27.50;18.07;;;2.80;99.90;;;;;;4935500;29;20035;-71
2023/03/04 04:30:48;;;;;;;32.43;18.27;;;2.90;99.90;;;;;;4935726;28;20046;-71
2023/03/04 04:33:15;;;;;;;27.57;18.00;;;2.90;99.90;;;;;;4934513;29;20043;-71
2023/03/04 04:35:41;;;;;;;29.87;17.30;;;2.90;99.90;;;;;;4919624;29;20039;-71
2023/03/04 04:38:07;;;;;;;32.43;18.83;;;2.90;99.90;;;;;;4934029;29;20028;-71
2023/03/04 04:40:33;;;;;;;30.43;18.33;;;2.90;99.90;;;;;;4934991;29;20035;-72
2023/03/04 04:42:59;;;;;;;31.70;20.07;;;2.80;99.90;;;;;;4934633;29;20040;-71
2023/03/04 04:45:26;;;;;;;33.17;19.67;;;2.80;99.90;;;;;;4918207;28;20047;-70
2023/03/04 04:47:52;;;;;;;33.70;19.80;;;2.80;99.90;;;;;;4934337;29;20055;-71
2023/03/04 04:50:18;;;;;;;31.27;19.30;;;2.80;99.90;;;;;;4917841;29;20051;-71
2023/03/04 04:52:45;;;;;;;32.87;18.97;;;2.70;99.90;;;;;;4934118;29;20075;-71
2023/03/04 04:55:11;;;;;;;33.47;20.13;;;2.70;99.90;;;;;;4934780;29;20053;-70
2023/03/04 04:57:37;;;;;;;31.30;19.47;;;2.70;99.90;;;;;;4934372;29;20043;-70
2023/03/04 05:00:05;;;;;;;31.37;19.87;;;2.60;99.90;;;;;;4934671;28;20024;-69
2023/03/04 05:02:35;;;;;;;32.50;20.10;;;2.60;99.90;;;;;;4919045;29;20505;-71
2023/03/04 05:05:02;;;;;;;34.23;22.43;;;2.60;99.90;;;;;;4934485;29;20030;-71
2023/03/04 05:07:28;;;;;;;33.23;21.57;;;2.60;99.90;;;;;;4921956;29;20036;-70
2023/03/04 05:09:54;;;;;;;34.67;20.90;;;2.60;99.90;;;;;;4934322;29;20055;-71
2023/03/04 05:12:20;;;;;;;35.40;21.10;;;2.70;99.90;;;;;;4939954;29;20523;-71
2023/03/04 05:14:46;;;;;;;29.30;19.20;;;2.70;99.90;;;;;;4934972;29;20041;-70
2023/03/04 05:17:12;;;;;;;30.30;20.77;;;2.60;99.90;;;;;;4918288;29;20412;-70
2023/03/04 05:19:39;;;;;;;35.90;22.83;;;2.50;99.90;;;;;;4935047;29;20038;-71
2023/03/04 05:22:05;;;;;;;33.57;22.47;;;2.50;99.90;;;;;;4935299;29;20040;-71
2023/03/04 05:24:31;;;;;;;35.50;23.30;;;2.60;99.90;;;;;;4918597;29;20059;-71
2023/03/04 05:26:57;;;;;;;40.57;26.20;;;2.60;99.90;;;;;;4933655;29;20027;-71
2023/03/04 05:29:23;;;;;;;36.43;24.20;;;2.70;99.90;;;;;;4929990;29;20043;-72
2023/03/04 05:31:49;;;;;;;40.07;23.87;;;2.70;99.90;;;;;;4934400;28;20036;-71
2023/03/04 05:34:15;;;;;;;34.00;23.00;;;2.80;99.90;;;;;;4935492;29;20036;-72
2023/03/04 05:36:41;;;;;;;40.97;23.40;;;2.80;99.90;;;;;;4935061;29;20363;-71
2023/03/04 05:39:07;;;;;;;38.27;25.00;;;2.80;99.90;;;;;;4935531;29;20036;-71
2023/03/04 05:41:34;;;;;;;36.37;23.80;;;2.80;99.90;;;;;;4932907;29;20070;-71
2023/03/04 05:44:00;;;;;;;39.47;24.67;;;2.90;99.90;;;;;;4933303;29;20047;-71
2023/03/04 05:46:26;;;;;;;43.93;23.57;;;2.90;99.90;;;;;;4917020;28;20062;-73
2023/03/04 05:48:52;;;;;;;38.63;23.63;;;3.00;99.90;;;;;;4933570;29;20044;-71
2023/03/04 05:51:18;;;;;;;38.53;23.27;;;3.00;99.90;;;;;;4916396;29;20031;-72
2023/03/04 05:53:45;;;;;;;36.47;23.50;;;3.10;99.90;;;;;;4932733;29;20043;-72
2023/03/04 05:56:13;;;;;;;33.20;22.17;;;3.20;99.90;;;;;;4933584;29;20032;-72
2023/03/04 05:58:39;;;;;;;39.87;24.10;;;3.20;99.90;;;;;;4914678;29;20028;-72
2023/03/04 06:01:05;;;;;;;38.17;24.17;;;3.30;99.90;;;;;;4893582;29;20047;-72
2023/03/04 06:03:31;;;;;;;38.00;22.73;;;3.20;99.90;;;;;;4932902;29;20051;-72
2023/03/04 06:05:57;;;;;;;38.43;24.63;;;3.10;99.90;;;;;;4934984;29;20020;-72
2023/03/04 06:08:23;;;;;;;36.30;23.17;;;3.00;99.90;;;;;;4935072;29;20036;-72
2023/03/04 06:10:51;;;;;;;33.83;19.63;;;2.90;99.90;;;;;;4933770;29;20074;-72
2023/03/04 06:13:17;;;;;;;40.03;20.57;;;2.80;99.90;;;;;;4941661;29;20039;-73
2023/03/04 06:15:43;;;;;;;40.07;22.90;;;2.60;99.90;;;;;;4932779;28;20040;-75
2023/03/04 06:18:09;;;;;;;40.57;22.70;;;2.50;99.90;;;;;;4917986;29;20031;-72
2023/03/04 06:20:36;;;;;;;41.30;25.27;;;2.40;99.90;;;;;;4934442;29;20028;-74
2023/03/04 06:23:02;;;;;;;39.47;24.20;;;2.40;99.90;;;;;;4934755;29;20043;-74
2023/03/04 06:25:28;;;;;;;41.90;25.03;;;2.40;99.90;;;;;;4933610;29;20024;-75
2023/03/04 06:27:54;;;;;;;41.00;22.27;;;2.40;99.90;;;;;;4933812;29;20055;-74
2023/03/04 06:30:21;;;;;;;39.23;25.57;;;2.50;99.90;;;;;;4932043;28;20043;-75
2023/03/04 06:32:47;;;;;;;40.87;25.87;;;2.50;99.90;;;;;;4899673;29;20066;-75
2023/03/04 06:35:13;;;;;;;40.03;24.63;;;2.60;99.90;;;;;;4933354;29;20031;-74
2023/03/04 06:37:39;;;;;;;44.70;27.90;;;2.60;99.90;;;;;;4932098;29;20038;-74
2023/03/04 06:40:06;;;;;;;58.60;30.90;;;2.60;99.90;;;;;;4933758;29;20024;-75
2023/03/04 06:42:33;;;;;;;39.07;26.20;;;2.70;99.90;;;;;;4917343;29;20035;-75
2023/03/04 06:45:00;;;;;;;41.97;26.40;;;2.70;99.90;;;;;;4917852;29;20392;-75
2023/03/04 06:47:26;;;;;;;44.17;26.37;;;2.70;99.90;;;;;;4933238;28;20040;-75
2023/03/04 06:49:52;;;;;;;42.77;27.73;;;2.70;99.90;;;;;;4933439;29;20043;-75
2023/03/04 06:52:19;;;;;;;37.53;21.90;;;2.60;99.90;;;;;;4933156;29;20396;-74
2023/03/04 06:54:45;;;;;;;36.83;23.00;;;2.60;99.90;;;;;;4917770;29;20024;-75
2023/03/04 06:57:12;;;;;;;37.50;23.03;;;2.40;99.90;;;;;;4934450;29;20134;-75
2023/03/04 06:59:39;;;;;;;36.30;23.00;;;2.40;99.90;;;;;;4917576;29;20032;-74
2023/03/04 07:02:05;;;;;;;44.67;26.50;;;2.40;99.90;;;;;;4917085;29;20039;-75
2023/03/04 07:04:31;;;;;;;43.93;26.70;;;2.40;99.90;;;;;;4934221;29;20416;-75
2023/03/04 07:06:57;;;;;;;43.33;29.20;;;2.40;99.90;;;;;;4920295;29;20027;-75
2023/03/04 07:09:23;;;;;;;41.37;28.23;;;2.50;99.90;;;;;;4921047;29;20066;-75
2023/03/04 07:11:49;;;;;;;44.67;30.43;;;2.50;99.90;;;;;;4936273;29;20430;-74
2023/03/04 07:14:15;;;;;;;45.30;29.40;;;2.50;99.90;;;;;;4936774;29;20042;-74
2023/03/04 07:16:41;;;;;;;47.10;29.00;;;2.60;99.90;;;;;;4936154;29;20032;-75
2023/03/04 07:19:08;;;;;;;42.23;27.87;;;2.60;99.90;;;;;;4949798;29;20038;-74
2023/03/04 07:21:34;;;;;;;43.37;29.07;;;2.60;99.90;;;;;;4950202;29;20032;-73
2023/03/04 07:24:00;;;;;;;42.50;26.93;;;2.60;99.90;;;;;;4936526;29;20036;-75
2023/03/04 07:26:26;;;;;;;38.53;26.10;;;2.70;99.90;;;;;;4919638;29;20098;-75
2023/03/04 07:28:53;;;;;;;41.87;26.70;;;2.70;99.90;;;;;;4916648;29;20051;-75
2023/03/04 07:31:29;;;;;;;44.63;29.33;;;2.60;99.90;;;;;;4932013;28;20036;-75
2023/03/04 07:34:00;;;;;;;54.20;26.17;;;2.70;99.90;;;;;;4926235;29;20040;-77
2023/03/04 07:36:26;;;;;;;41.47;24.65;;;2.80;99.90;;;;;;4935803;29;20035;-74
2023/03/04 07:38:55;;;;;;;45.73;28.17;;;2.80;99.90;;;;;;4936436;29;20051;-75
2023/03/04 07:41:22;;;;;;;44.27;25.53;;;2.90;99.90;;;;;;4936470;29;20028;-75
2023/03/04 07:43:49;;;;;;;42.47;25.00;;;2.90;99.90;;;;;;4936371;29;20400;-74
2023/03/04 07:46:15;;;;;;;47.33;23.57;;;2.90;99.90;;;;;;4935516;28;20024;-74
2023/03/04 07:48:41;;;;;;;46.20;25.97;;;3.00;99.90;;;;;;4936533;29;20028;-74
2023/03/04 07:51:17;;;;;;;36.27;23.40;;;3.00;99.90;;;;;;4935454;29;20389;-75
2023/03/04 07:53:45;;;;;;;38.17;23.97;;;3.20;99.90;;;;;;4902928;29;20043;-74
2023/03/04 07:56:13;;;;;;;36.87;24.73;;;3.20;99.90;;;;;;4917944;29;20036;-75
2023/03/04 07:58:39;;;;;;;42.40;23.13;;;3.30;99.90;;;;;;4918335;29;20035;-74
2023/03/04 08:01:16;;;;;;;34.30;22.37;;;3.40;99.90;;;;;;4933969;28;20032;-74
2023/03/04 08:03:42;;;;;;;19.27;13.17;;;3.50;99.90;;;;;;4920503;29;20050;-74
2023/03/04 08:06:10;;;;;;;36.47;22.73;;;3.40;99.90;;;;;;4935749;29;20024;-75
2023/03/04 08:08:36;;;;;;;39.87;22.93;;;3.50;99.90;;;;;;4935640;29;20027;-75
2023/03/04 08:11:06;;;;;;;34.97;20.10;;;3.60;99.90;;;;;;4933328;29;20055;-75
2023/03/04 08:13:32;;;;;;;22.53;13.93;;;3.80;99.90;;;;;;4934957;29;20023;-75
2023/03/04 08:15:59;;;;;;;32.50;19.77;;;3.80;99.90;;;;;;4918058;28;20042;-75
2023/03/04 08:18:25;;;;;;;29.33;17.20;;;3.80;99.90;;;;;;4910643;29;20047;-75
2023/03/04 08:20:51;;;;;;;32.87;19.47;;;4.00;99.90;;;;;;4935203;29;20028;-75
2023/03/04 08:23:17;;;;;;;34.07;22.17;;;4.00;99.90;;;;;;4918750;29;20062;-75
2023/03/04 08:25:44;;;;;;;35.60;21.17;;;4.20;99.90;;;;;;4935956;29;20035;-75
2023/03/04 08:28:12;;;;;;;35.23;22.87;;;4.30;99.90;;;;;;4934769;29;20055;-75
2023/03/04 08:30:38;;;;;;;33.63;21.00;;;4.40;99.90;;;;;;4918247;29;20044;-75
2023/03/04 08:33:05;;;;;;;29.50;19.87;;;4.50;99.90;;;;;;4918610;29;20411;-75
2023/03/04 08:35:31;;;;;;;29.20;15.90;;;4.60;99.90;;;;;;4935353;29;20039;-75
2023/03/04 08:37:57;;;;;;;29.30;19.80;;;4.80;99.90;;;;;;4933738;29;20032;-75
2023/03/04 08:40:25;;;;;;;28.47;16.47;;;4.80;99.90;;;;;;4934668;29;20066;-75
2023/03/04 08:42:51;;;;;;;9.17;6.73;;;4.70;99.90;;;;;;4933537;29;20035;-75
2023/03/04 08:45:17;;;;;;;14.53;8.20;;;4.90;99.90;;;;;;4933852;28;20055;-75
2023/03/04 08:47:43;;;;;;;26.90;17.90;;;4.70;99.90;;;;;;4934092;29;20043;-75
2023/03/04 08:50:10;;;;;;;31.00;20.20;;;4.90;99.90;;;;;;4936293;29;20032;-75
2023/03/04 08:52:36;;;;;;;28.70;17.93;;;5.10;99.90;;;;;;4934203;29;20036;-75
2023/03/04 08:55:02;;;;;;;26.80;19.27;;;5.10;99.90;;;;;;4935155;29;20058;-75
2023/03/04 08:57:28;;;;;;;29.97;16.93;;;5.20;99.90;;;;;;4933410;29;20040;-72
2023/03/04 08:59:54;;;;;;;31.00;19.47;;;5.30;99.90;;;;;;4935957;29;20039;-73
2023/03/04 09:02:20;;;;;;;30.57;19.10;;;5.40;99.90;;;;;;4932921;28;20055;-72
2023/03/04 09:04:47;;;;;;;24.87;17.57;;;5.50;99.90;;;;;;4933988;29;20046;-75
2023/03/04 09:07:13;;;;;;;27.70;18.53;;;5.60;99.90;;;;;;4928990;29;20032;-75
2023/03/04 09:09:39;;;;;;;26.40;19.40;;;5.50;99.90;;;;;;4930359;29;20047;-75
2023/03/04 09:12:05;;;;;;;27.13;18.53;;;5.60;99.90;;;;;;4941206;29;20050;-75
2023/03/04 09:14:34;;;;;;;25.67;17.65;;;5.80;99.90;;;;;;4947244;29;20036;-75
2023/03/04 09:17:03;;;;;;;14.13;9.57;;;6.00;99.90;;;;;;4934212;28;20046;-75
2023/03/04 09:19:29;;;;;;;26.90;16.50;;;5.90;99.90;;;;;;4943523;29;20031;-75
2023/03/04 09:21:58;;;;;;;28.87;19.20;;;5.60;99.90;;;;;;4934527;29;20469;-75
2023/03/04 09:24:25;;;;;;;25.27;16.50;;;5.80;99.90;;;;;;4931029;29;20035;-75
2023/03/04 09:26:52;;;;;;;18.90;13.27;;;5.90;99.90;;;;;;4931150;29;20038;-75
2023/03/04 09:29:18;;;;;;;12.50;8.75;;;5.90;99.90;;;;;;4917086;29;20038;-75
2023/03/04 09:31:44;;;;;;;26.87;16.70;;;5.90;99.90;;;;;;4933276;28;20048;-75
2023/03/04 09:34:10;;;;;;;12.53;9.50;;;5.90;99.90;;;;;;4917799;29;20047;-75
2023/03/04 09:36:36;;;;;;;30.67;18.53;;;6.10;99.90;;;;;;4934179;29;20039;-75
2023/03/04 09:39:03;;;;;;;14.13;10.35;;;6.20;99.90;;;;;;4934395;29;20055;-75
2023/03/04 09:41:35;;;;;;;26.83;15.63;;;6.20;99.90;;;;;;4916538;29;20020;-75
2023/03/04 09:44:02;;;;;;;12.60;9.03;;;6.30;99.90;;;;;;4930897;29;20054;-75
2023/03/04 09:46:33;;;;;;;27.85;17.27;;;6.40;99.90;;;;;;4916883;29;20027;-75
2023/03/04 09:48:59;;;;;;;32.55;19.98;;;6.40;99.90;;;;;;4917226;29;20034;-75
2023/03/04 09:51:51;;;;;;;27.80;19.17;;;6.60;99.90;;;;;;4934190;29;20046;-75
2023/03/04 09:54:30;;;;;;;23.60;16.70;;;6.80;99.90;;;;;;4932707;29;20485;-75
2023/03/04 09:57:03;;;;;;;24.33;16.25;;;7.00;99.90;;;;;;4934904;29;20377;-73
2023/03/04 09:59:34;;;;;;;18.90;13.55;;;6.80;99.90;;;;;;4917759;29;20046;-73
2023/03/04 10:02:12;;;;;;;30.67;22.35;;;6.90;99.90;;;;;;4917057;28;20031;-73
2023/03/04 10:04:39;;;;;;;28.55;19.15;;;6.90;99.90;;;;;;4919243;29;20415;-73
2023/03/04 10:07:14;;;;;;;31.63;21.13;;;7.00;99.90;;;;;;4936957;29;20023;-73
2023/03/04 10:09:47;;;;;;;23.88;18.00;;;6.90;99.90;;;;;;4929945;29;20504;-73
2023/03/04 10:12:15;;;;;;;22.55;15.98;;;7.00;99.90;;;;;;4941420;29;20023;-73
2023/03/04 10:14:50;;;;;;;25.05;18.48;;;7.10;99.90;;;;;;4916509;29;20500;-75
2023/03/04 10:17:36;;;;;;;27.88;20.40;;;7.10;99.90;;;;;;4907858;28;20757;-75
2023/03/04 10:20:10;;;;;;;27.55;20.20;;;7.30;99.90;;;;;;4934141;29;20040;-74
2023/03/04 10:22:49;;;;;;;26.55;20.20;;;7.50;99.90;;;;;;4932641;29;20034;-75
2023/03/04 10:25:20;;;;;;;26.85;20.20;;;7.60;99.90;;;;;;4949450;29;20047;-75
2023/03/04 10:28:16;;;;;;;17.90;12.00;;;7.60;99.90;;;;;;4932526;29;20380;-75
2023/03/04 10:31:08;;;;;;;23.60;16.58;;;7.50;99.90;;;;;;4931769;28;20036;-75
2023/03/04 10:33:35;;;;;;;24.70;16.02;;;7.40;99.90;;;;;;4919044;29;20040;-75
2023/03/04 10:36:20;;;;;;;20.70;16.85;;;7.70;99.90;;;;;;4931563;29;20035;-74
2023/03/04 10:38:46;;;;;;;22.70;15.05;;;7.80;99.90;;;;;;4933328;29;20393;-71
2023/03/04 10:41:14;;;;;;;15.57;11.95;;;7.70;99.90;;;;;;4902200;29;20048;-76
2023/03/04 10:43:42;;;;;;;15.88;11.05;;;7.70;99.90;;;;;;4934819;29;20047;-75
2023/03/04 10:46:10;;;;;;;25.27;19.17;;;7.80;99.90;;;;;;4931464;28;20032;-76
2023/03/04 10:48:36;;;;;;;20.65;12.60;;;7.90;99.90;;;;;;4928291;29;20036;-76
2023/03/04 10:51:20;;;;;;;28.30;18.13;;;7.90;99.90;;;;;;4919416;29;20031;-75
2023/03/04 10:53:51;;;;;;;27.48;18.50;;;8.00;99.90;;;;;;4917486;29;20038;-76
2023/03/04 10:56:36;;;;;;;33.58;19.45;;;8.20;99.90;;;;;;4935469;29;20377;-75
2023/03/04 10:59:40;;;;;;;26.17;16.75;;;8.30;99.90;;;;;;4936766;29;20036;-75
2023/03/04 11:02:20;;;;;;;25.08;17.92;;;8.50;99.90;;;;;;4936575;28;20039;-75
2023/03/04 11:04:52;;;;;;;12.25;9.38;;;8.50;99.90;;;;;;4936878;29;20036;-76
2023/03/04 11:07:19;;;;;;;24.75;18.10;;;8.60;99.90;;;;;;4920660;29;20044;-76
2023/03/04 11:09:46;;;;;;;30.70;22.15;;;8.60;99.90;;;;;;4919436;29;20035;-76
2023/03/04 11:12:13;;;;;;;29.55;18.05;;;8.60;99.90;;;;;;4944189;29;20530;-76
2023/03/04 11:14:43;;;;;;;29.15;20.23;;;8.90;99.90;;;;;;4919728;29;20047;-75
2023/03/04 11:17:37;;;;;;;26.75;19.98;;;9.00;99.90;;;;;;4934962;28;20039;-75
2023/03/04 11:20:38;;;;;;;16.15;10.38;;;9.10;99.90;;;;;;4903737;29;20498;-75
2023/03/04 11:23:05;;;;;;;;;;;8.90;99.90;;;;;;4901154;29;20052;-75
2023/03/04 11:25:34;;;;;;;30.73;20.67;;;9.00;99.90;;;;;;4910191;29;19914;-75
2023/03/04 11:28:12;;;;;;;30.13;21.83;;;8.90;99.90;;;;;;4918691;29;20036;-76
2023/03/04 11:30:43;;;;;;;19.90;15.05;;;9.00;99.90;;;;;;4917495;29;20035;-75
2023/03/04 11:33:14;;;;;;;31.70;18.95;;;9.10;99.90;;;;;;4900300;29;20048;-76
2023/03/04 11:35:46;;;;;;;;;;;9.10;99.90;;;;;;4901101;29;20055;-74
2023/03/04 11:38:31;;;;;;;12.60;9.70;;;9.10;99.90;;;;;;4915928;29;20018;-75
2023/03/04 11:40:59;;;;;;;19.45;13.27;;;9.00;99.90;;;;;;4906477;29;20043;-76
2023/03/04 11:43:45;;;;;;;14.93;10.57;;;9.20;99.90;;;;;;4908801;29;20447;-76
2023/03/04 11:46:14;;;;;;;24.27;18.35;;;9.30;99.90;;;;;;4928911;29;20440;-76
2023/03/04 11:49:13;;;;;;;30.02;19.95;;;9.30;99.90;;;;;;4924465;29;20035;-76
2023/03/04 11:51:51;;;;;;;25.75;19.50;;;9.50;99.90;;;;;;4919213;29;20050;-75
2023/03/04 11:54:36;;;;;;;16.23;10.60;;;9.60;99.90;;;;;;4916530;29;20039;-76
2023/03/04 11:57:06;;;;;;;13.82;10.18;;;9.50;99.90;;;;;;4930890;29;20039;-75
2023/03/04 11:59:47;;;;;;;29.10;21.40;;;9.30;99.90;;;;;;4930474;29;20044;-76
2023/03/04 12:02:18;;;;;;;26.80;20.88;;;9.40;99.90;;;;;;4934405;29;20047;-76
2023/03/04 12:05:11;;;;;;;8.88;7.97;;;9.40;99.90;;;;;;4919199;29;20036;-76
2023/03/04 12:07:56;;;;;;;30.42;22.00;;;9.50;99.90;;;;;;4916976;29;20036;-75
2023/03/04 12:10:43;;;;;;;25.08;17.77;;;9.70;99.90;;;;;;4935637;29;20062;-76
2023/03/04 12:13:29;;;;;;;30.75;20.95;;;9.90;99.90;;;;;;4934454;29;20034;-76
2023/03/04 12:16:36;;;;;;;32.55;23.58;;;10.10;99.90;;;;;;4933956;28;20035;-76
2023/03/04 12:19:21;;;;;;;19.67;14.73;;;10.00;99.90;;;;;;4933596;29;20393;-76
2023/03/04 12:22:06;;;;;;;31.33;23.13;;;10.10;99.90;;;;;;4930664;29;20043;-76
2023/03/04 12:24:53;;;;;;;19.38;13.88;;;10.20;99.90;;;;;;4933727;29;20047;-75
2023/03/04 12:27:26;;;;;;;25.40;18.25;;;10.20;99.90;;;;;;4934789;29;20039;-76
2023/03/04 12:30:06;;;;;;;25.90;19.70;;;10.10;99.90;;;;;;4918668;29;20039;-76
2023/03/04 12:32:47;;;;;;;24.45;19.55;;;10.00;99.90;;;;;;4933469;29;20044;-76
2023/03/04 12:35:18;;;;;;;17.67;13.73;;;10.10;99.90;;;;;;4933136;29;20042;-75
2023/03/04 12:38:06;;;;;;;27.00;21.60;;;10.20;99.90;;;;;;4933412;29;20047;-76
2023/03/04 12:41:07;;;;;;;29.38;21.45;;;10.20;99.90;;;;;;4919443;29;20046;-76
2023/03/04 12:43:54;;;;;;;;;;;10.20;99.90;;;;;;4917090;29;20039;-76
2023/03/04 12:46:26;;;;;;;16.38;13.23;;;10.20;99.90;;;;;;4930738;28;19971;-76
2023/03/04 12:49:01;;;;;;;29.60;20.80;;;10.20;99.90;;;;;;4916015;29;20051;-76